Time;durP1;ratioP1;P1;durP2;ratioP2;P2;SDS_P1;SDS_P2;PMS_P1;PMS_P2;Temp;Humidity;BMP_temperature;BMP_pressure;BME280_temperature;BME280_humidity;BME280_pressure;Samples;Min_cycle;Max_cycle;Signal;HPM_P1;HPM_P2
2022/04/29 00:01:39;;;;;;;17.00;6.35;;;8.00;71.30;;;;;;5040243;28;20052;-73
2022/04/29 00:04:07;;;;;;;14.93;6.15;;;8.00;71.40;;;;;;5033543;28;20191;-73
2022/04/29 00:06:35;;;;;;;17.90;6.57;;;8.00;71.50;;;;;;5055315;28;20048;-73
2022/04/29 00:09:03;;;;;;;14.50;6.35;;;8.00;71.60;;;;;;5061902;28;20550;-73
2022/04/29 00:11:30;;;;;;;16.98;6.50;;;7.90;71.60;;;;;;5061780;28;20052;-72
2022/04/29 00:13:58;;;;;;;14.18;6.18;;;7.90;71.70;;;;;;5055379;28;20047;-73
2022/04/29 00:16:26;;;;;;;15.07;6.38;;;7.90;71.70;;;;;;5066232;28;20048;-73
2022/04/29 00:18:54;;;;;;;16.23;6.10;;;7.90;71.80;;;;;;5064019;28;20040;-73
2022/04/29 00:21:23;;;;;;;13.50;6.57;;;7.90;71.90;;;;;;5063306;28;20036;-73
2022/04/29 00:23:51;;;;;;;15.27;6.43;;;7.90;72.00;;;;;;5066788;28;20044;-73
2022/04/29 00:26:18;;;;;;;14.65;6.70;;;7.90;72.00;;;;;;5058530;28;20048;-74
2022/04/29 00:28:46;;;;;;;14.02;6.30;;;7.90;72.10;;;;;;5043977;28;20037;-73
2022/04/29 00:31:14;;;;;;;14.57;6.22;;;7.90;72.10;;;;;;5040050;28;20096;-73
2022/04/29 00:33:41;;;;;;;16.75;6.65;;;7.90;72.20;;;;;;5060436;28;20044;-72
2022/04/29 00:36:09;;;;;;;15.52;6.47;;;7.80;72.20;;;;;;5064156;28;20525;-73
2022/04/29 00:38:37;;;;;;;13.75;6.03;;;7.90;72.30;;;;;;5041935;28;20037;-72
2022/04/29 00:41:04;;;;;;;20.10;6.55;;;7.80;72.40;;;;;;5048554;28;20060;-73
2022/04/29 00:43:32;;;;;;;16.27;6.57;;;7.80;72.40;;;;;;5046771;28;20501;-73
2022/04/29 00:46:00;;;;;;;16.70;7.25;;;7.80;72.50;;;;;;5058325;28;20049;-73
2022/04/29 00:48:28;;;;;;;14.07;6.22;;;7.80;72.50;;;;;;5063938;28;20032;-73
2022/04/29 00:50:56;;;;;;;16.13;6.35;;;7.80;72.70;;;;;;5043663;28;20053;-73
2022/04/29 00:53:26;;;;;;;16.20;6.25;;;7.80;72.70;;;;;;5064597;28;20047;-73
2022/04/29 00:55:55;;;;;;;13.38;5.82;;;7.80;72.70;;;;;;5042648;28;20053;-73
2022/04/29 00:58:33;;;;;;;17.52;6.50;;;7.80;72.80;;;;;;5046820;28;20044;-73
2022/04/29 01:01:03;;;;;;;15.38;6.18;;;7.80;72.90;;;;;;5064853;28;20052;-73
2022/04/29 01:03:33;;;;;;;15.68;6.35;;;7.80;72.90;;;;;;5043585;28;20041;-73
2022/04/29 01:06:01;;;;;;;9.50;5.13;;;7.80;73.00;;;;;;5062161;28;20040;-73
2022/04/29 01:08:28;;;;;;;8.77;5.32;;;7.70;73.00;;;;;;5059130;28;20057;-72
2022/04/29 01:10:56;;;;;;;14.40;6.18;;;7.80;73.10;;;;;;5062742;28;20048;-73
2022/04/29 01:13:26;;;;;;;14.80;5.93;;;7.70;73.10;;;;;;5077872;28;20047;-73
2022/04/29 01:15:57;;;;;;;14.07;5.90;;;7.70;73.10;;;;;;5081350;28;20075;-72
2022/04/29 01:18:27;;;;;;;17.48;5.72;;;7.70;73.20;;;;;;5084293;28;20039;-73
2022/04/29 01:21:03;;;;;;;18.40;6.38;;;7.70;73.20;;;;;;5084782;28;20044;-73
2022/04/29 01:23:32;;;;;;;13.35;5.82;;;7.70;73.30;;;;;;5080163;28;20040;-73
2022/04/29 01:26:00;;;;;;;12.85;5.78;;;7.70;73.30;;;;;;5079295;28;20492;-72
2022/04/29 01:28:30;;;;;;;14.18;5.40;;;7.70;73.40;;;;;;5081269;28;20040;-73
2022/04/29 01:30:59;;;;;;;17.05;6.10;;;7.70;73.50;;;;;;5093217;28;20067;-72
2022/04/29 01:33:30;;;;;;;14.10;6.05;;;7.70;73.50;;;;;;5079600;28;20039;-72
2022/04/29 01:35:58;;;;;;;11.57;5.85;;;7.70;73.50;;;;;;5081667;28;20048;-73
2022/04/29 01:38:26;;;;;;;11.57;5.75;;;7.60;73.60;;;;;;5084915;28;20044;-73
2022/04/29 01:40:54;;;;;;;12.93;5.85;;;7.70;73.70;;;;;;5083198;28;20052;-72
2022/04/29 01:43:28;;;;;;;15.85;6.13;;;7.70;73.80;;;;;;5077562;28;20047;-72
2022/04/29 01:45:55;;;;;;;17.02;6.07;;;7.60;73.90;;;;;;5085124;28;20047;-72
2022/04/29 01:48:32;;;;;;;13.15;5.85;;;7.60;73.90;;;;;;5080738;28;20056;-73
2022/04/29 01:51:12;;;;;;;12.85;6.13;;;7.60;73.90;;;;;;5085891;28;20040;-73
2022/04/29 01:53:40;;;;;;;11.48;5.47;;;7.60;73.90;;;;;;5081037;28;20040;-73
2022/04/29 01:56:08;;;;;;;10.88;5.68;;;7.60;74.00;;;;;;5083563;28;20048;-73
2022/04/29 01:58:37;;;;;;;17.98;6.15;;;7.60;74.00;;;;;;5079440;28;20047;-72
2022/04/29 02:01:06;;;;;;;12.48;5.57;;;7.60;74.10;;;;;;5081912;28;20048;-73
2022/04/29 02:03:34;;;;;;;16.42;5.43;;;7.60;74.10;;;;;;5068699;28;20064;-73
2022/04/29 02:06:02;;;;;;;15.75;6.07;;;7.60;74.10;;;;;;5075724;28;20048;-73
2022/04/29 02:08:31;;;;;;;13.30;5.63;;;7.60;74.10;;;;;;5085739;28;20040;-73
2022/04/29 02:11:02;;;;;;;12.43;5.38;;;7.60;74.20;;;;;;5083113;28;20075;-73
2022/04/29 02:13:31;;;;;;;15.88;5.60;;;7.60;74.20;;;;;;5083966;28;20047;-73
2022/04/29 02:16:37;;;;;;;11.75;5.40;;;7.60;74.20;;;;;;5035369;28;20048;-73
2022/04/29 02:19:05;;;;;;;12.52;5.50;;;7.60;74.20;;;;;;5028877;28;20499;-73
2022/04/29 02:21:33;;;;;;;14.18;5.38;;;7.60;74.20;;;;;;5034534;28;20080;-73
2022/04/29 02:24:02;;;;;;;16.00;5.47;;;7.60;74.30;;;;;;5017744;28;20457;-74
2022/04/29 02:26:29;;;;;;;10.15;5.03;;;7.60;74.30;;;;;;5039485;28;20402;-73
2022/04/29 02:28:58;;;;;;;16.35;5.63;;;7.50;74.40;;;;;;5022548;28;20064;-73
2022/04/29 02:31:26;;;;;;;16.05;6.05;;;7.60;74.50;;;;;;5028401;28;20048;-72
2022/04/29 02:33:54;;;;;;;13.23;5.47;;;7.50;74.50;;;;;;5037492;28;20060;-72
2022/04/29 02:36:23;;;;;;;14.70;6.20;;;7.50;74.60;;;;;;5024960;28;20061;-72
2022/04/29 02:38:50;;;;;;;15.95;5.57;;;7.50;74.60;;;;;;5031786;28;20052;-72
2022/04/29 02:41:18;;;;;;;19.58;5.55;;;7.50;74.70;;;;;;5015905;28;20057;-72
2022/04/29 02:43:46;;;;;;;17.88;5.18;;;7.50;74.70;;;;;;5038721;28;20084;-73
2022/04/29 02:46:13;;;;;;;11.40;4.78;;;7.50;74.70;;;;;;5033787;28;20052;-73
2022/04/29 02:48:42;;;;;;;16.10;5.20;;;7.50;74.70;;;;;;5074074;28;20156;-73
2022/04/29 02:51:09;;;;;;;13.00;5.10;;;7.50;74.70;;;;;;5086826;28;20515;-73
2022/04/29 02:53:38;;;;;;;13.48;5.13;;;7.40;74.70;;;;;;5059498;28;20044;-73
2022/04/29 02:56:06;;;;;;;12.07;5.00;;;7.50;74.80;;;;;;5084026;28;20058;-73
2022/04/29 02:58:52;;;;;;;18.23;5.38;;;7.50;74.80;;;;;;5083653;28;20044;-73
2022/04/29 03:01:20;;;;;;;15.35;5.00;;;7.50;74.80;;;;;;5079547;28;20059;-73
2022/04/29 03:03:48;;;;;;;18.27;6.05;;;7.50;74.80;;;;;;5070926;28;20055;-73
2022/04/29 03:06:15;;;;;;;17.30;5.88;;;7.50;74.90;;;;;;5077942;28;20055;-72
2022/04/29 03:08:44;;;;;;;17.08;5.30;;;7.40;74.90;;;;;;5080451;28;20055;-73
2022/04/29 03:11:13;;;;;;;13.82;5.20;;;7.40;74.90;;;;;;5065710;28;20049;-73
2022/04/29 03:13:40;;;;;;;14.63;5.20;;;7.40;75.00;;;;;;5038065;28;20056;-73
2022/04/29 03:16:13;;;;;;;14.02;5.40;;;7.50;75.00;;;;;;5023017;28;20033;-73
2022/04/29 03:18:44;;;;;;;10.65;5.25;;;7.40;75.00;;;;;;5041256;28;20041;-73
2022/04/29 03:21:13;;;;;;;14.00;5.30;;;7.40;75.00;;;;;;5036412;28;20410;-73
2022/04/29 03:23:40;;;;;;;22.20;5.68;;;7.40;75.00;;;;;;5060119;28;20049;-74
2022/04/29 03:26:08;;;;;;;10.45;5.35;;;7.40;75.00;;;;;;5028884;28;20052;-74
2022/04/29 03:28:36;;;;;;;10.07;5.35;;;7.40;75.10;;;;;;5039008;28;20052;-74
2022/04/29 03:31:04;;;;;;;15.50;5.78;;;7.40;75.10;;;;;;5035969;28;20514;-73
2022/04/29 03:33:55;;;;;;;16.58;5.80;;;7.40;75.10;;;;;;4981817;28;20468;-73
2022/04/29 03:36:23;;;;;;;14.43;5.72;;;7.40;75.10;;;;;;4998273;28;20496;-72
2022/04/29 03:38:55;;;;;;;18.88;6.57;;;7.30;75.20;;;;;;4996243;28;20054;-72
2022/04/29 03:41:23;;;;;;;20.05;6.22;;;7.30;75.20;;;;;;5004371;28;20050;-72
2022/04/29 03:43:57;;;;;;;13.43;6.22;;;7.40;75.30;;;;;;4987607;28;20061;-73
2022/04/29 03:46:30;;;;;;;18.92;6.25;;;7.30;75.30;;;;;;4992991;28;20500;-72
2022/04/29 03:52:06;;;;;;;14.02;6.97;;;7.30;75.20;;;;;;4993027;28;20057;-74
2022/04/29 03:54:34;;;;;;;16.92;6.32;;;7.30;75.30;;;;;;4987154;28;20665;-73
2022/04/29 03:57:02;;;;;;;19.23;6.53;;;7.30;75.30;;;;;;4987171;28;20535;-73
2022/04/29 03:59:30;;;;;;;14.30;6.35;;;7.30;75.30;;;;;;5004976;28;20038;-73
2022/04/29 04:01:58;;;;;;;15.88;6.30;;;7.30;75.30;;;;;;5001497;28;20061;-72
2022/04/29 04:04:26;;;;;;;15.50;6.60;;;7.30;75.40;;;;;;5000777;28;20057;-73
2022/04/29 04:07:01;;;;;;;16.63;7.03;;;7.30;75.30;;;;;;4986734;28;20732;-72
2022/04/29 04:09:52;;;;;;;14.63;6.30;;;7.30;75.30;;;;;;5001398;28;20507;-73
2022/04/29 04:12:20;;;;;;;19.42;6.78;;;7.30;75.30;;;;;;5083817;28;20110;-72
2022/04/29 04:15:11;;;;;;;13.50;6.18;;;7.30;75.40;;;;;;5078425;28;20489;-73
2022/04/29 04:17:44;;;;;;;14.35;7.07;;;7.30;75.40;;;;;;5080989;28;20044;-72
2022/04/29 04:20:14;;;;;;;16.25;7.50;;;7.30;75.40;;;;;;5076953;28;20044;-73
2022/04/29 04:23:00;;;;;;;17.70;7.00;;;7.30;75.40;;;;;;5080792;28;20501;-72
2022/04/29 04:25:28;;;;;;;15.95;6.95;;;7.30;75.40;;;;;;5078353;28;20482;-72
2022/04/29 04:27:55;;;;;;;15.10;6.80;;;7.30;75.50;;;;;;5086066;28;20040;-72
2022/04/29 04:30:43;;;;;;;15.75;6.90;;;7.30;75.60;;;;;;5080404;28;20048;-73
2022/04/29 04:33:12;;;;;;;15.20;6.60;;;7.30;75.50;;;;;;5075447;28;20052;-73
2022/04/29 04:35:39;;;;;;;16.00;6.65;;;7.20;75.60;;;;;;5081228;28;20040;-73
2022/04/29 04:38:07;;;;;;;17.05;6.85;;;7.20;75.70;;;;;;5072423;28;20401;-73
2022/04/29 04:40:47;;;;;;;15.40;6.97;;;7.20;75.70;;;;;;5078259;28;20059;-73
2022/04/29 04:43:20;;;;;;;17.17;7.40;;;7.20;75.90;;;;;;5080624;28;20051;-73
2022/04/29 04:45:51;;;;;;;17.33;7.18;;;7.20;75.90;;;;;;5083744;28;20040;-73
2022/04/29 04:48:44;;;;;;;17.25;7.90;;;7.20;76.00;;;;;;5082539;28;20059;-74
2022/04/29 04:51:21;;;;;;;22.50;8.38;;;7.20;76.10;;;;;;5081054;28;20044;-73
2022/04/29 04:53:53;;;;;;;13.00;7.35;;;7.10;76.10;;;;;;5081392;28;20049;-73
2022/04/29 04:56:22;;;;;;;14.90;7.45;;;7.20;76.20;;;;;;5062801;28;20045;-73
2022/04/29 04:58:51;;;;;;;14.88;7.18;;;7.20;76.30;;;;;;5072966;28;20493;-73
2022/04/29 05:01:20;;;;;;;14.73;7.82;;;7.20;76.30;;;;;;5095037;28;20388;-73
2022/04/29 05:04:14;;;;;;;;;;;7.20;76.20;;;;;;5046015;28;20048;-73
2022/04/29 05:07:00;;;;;;;17.00;7.13;;;7.20;76.10;;;;;;5085019;28;19920;-73
2022/04/29 05:09:27;;;;;;;20.90;8.52;;;7.20;75.90;;;;;;5081421;28;20401;-72
2022/04/29 05:11:56;;;;;;;14.20;8.10;;;7.30;75.90;;;;;;5039873;28;20049;-73
2022/04/29 05:14:49;;;;;;;15.43;7.90;;;7.30;75.90;;;;;;5046245;28;20033;-73
2022/04/29 05:17:17;;;;;;;16.08;7.72;;;7.30;75.80;;;;;;5033980;28;20048;-72
2022/04/29 05:20:05;;;;;;;20.58;8.27;;;7.30;75.80;;;;;;5071027;28;20362;-73
2022/04/29 05:22:37;;;;;;;;;;;7.30;75.80;;;;;;5038587;28;20040;-73
2022/04/29 05:25:06;;;;;;;16.45;8.85;;;7.30;75.80;;;;;;5042782;28;19920;-74
2022/04/29 05:27:52;;;;;;;13.65;8.77;;;7.30;75.60;;;;;;5058021;28;20414;-73
2022/04/29 05:30:38;;;;;;;14.25;9.15;;;7.30;75.60;;;;;;5059689;28;20043;-73
2022/04/29 05:33:25;;;;;;;18.75;9.48;;;7.40;75.60;;;;;;5060904;28;20048;-73
2022/04/29 05:36:12;;;;;;;22.40;10.55;;;7.40;75.50;;;;;;5067314;28;20037;-73
2022/04/29 05:44:34;;;;;;;19.45;8.63;;;7.50;75.40;;;;;;5042748;28;20041;-73
2022/04/29 05:47:03;;;;;;;20.75;9.73;;;7.50;75.30;;;;;;5040934;28;20049;-73
2022/04/29 05:49:31;;;;;;;17.42;9.90;;;7.60;75.20;;;;;;5042397;28;20041;-73
2022/04/29 05:52:03;;;;;;;17.95;10.18;;;7.60;75.10;;;;;;5039988;28;20052;-72
2022/04/29 05:54:34;;;;;;;19.35;10.18;;;7.60;75.00;;;;;;5045750;28;20063;-73
2022/04/29 05:57:10;;;;;;;20.20;10.75;;;7.60;74.90;;;;;;5029112;28;20698;-74
2022/04/29 05:59:38;;;;;;;19.63;9.93;;;7.70;75.00;;;;;;5045844;28;20063;-74
2022/04/29 06:02:27;;;;;;;23.35;10.80;;;7.60;74.90;;;;;;5052660;28;20056;-74
2022/04/29 06:05:08;;;;;;;21.25;11.52;;;7.60;74.80;;;;;;5043770;28;20048;-74
2022/04/29 06:07:36;;;;;;;19.40;10.52;;;7.60;74.70;;;;;;5039084;28;20052;-73
2022/04/29 06:10:09;;;;;;;21.63;10.77;;;7.60;74.70;;;;;;5055641;28;20041;-74
2022/04/29 06:12:41;;;;;;;18.60;10.63;;;7.60;74.70;;;;;;5077203;28;20051;-75
2022/04/29 06:15:19;;;;;;;17.75;10.50;;;7.60;74.70;;;;;;5088174;28;20040;-74
2022/04/29 06:18:09;;;;;;;19.63;10.63;;;7.50;74.60;;;;;;5076891;28;20400;-74
2022/04/29 06:20:56;;;;;;;18.58;10.57;;;7.50;74.50;;;;;;5083037;28;20500;-74
2022/04/29 06:23:50;;;;;;;25.02;10.93;;;7.50;74.40;;;;;;5082949;28;20060;-73
2022/04/29 06:26:19;;;;;;;19.40;10.60;;;7.50;74.20;;;;;;5084753;28;20059;-73
2022/04/29 06:28:47;;;;;;;18.73;9.98;;;7.50;73.70;;;;;;5073954;28;20444;-73
2022/04/29 06:31:15;;;;;;;18.10;9.95;;;7.60;73.40;;;;;;5046152;28;20048;-74
2022/04/29 06:33:58;;;;;;;19.05;9.93;;;7.60;73.10;;;;;;5093095;28;20039;-73
2022/04/29 06:36:27;;;;;;;21.17;10.32;;;7.70;72.70;;;;;;5093138;28;20051;-74
2022/04/29 06:38:58;;;;;;;21.63;10.65;;;7.70;72.10;;;;;;5085891;28;20055;-74
2022/04/29 06:41:52;;;;;;;17.90;10.18;;;7.80;71.60;;;;;;5090017;28;20039;-73
2022/04/29 06:44:42;;;;;;;18.60;9.63;;;7.80;71.10;;;;;;5078320;28;20385;-73
2022/04/29 06:47:45;;;;;;;24.83;10.07;;;7.80;70.70;;;;;;5074374;28;20047;-73
2022/04/29 06:50:38;;;;;;;14.75;9.07;;;7.90;69.90;;;;;;5084025;28;20446;-74
2022/04/29 06:53:26;;;;;;;16.17;9.02;;;7.90;69.40;;;;;;5074866;28;20055;-75
2022/04/29 06:55:54;;;;;;;18.92;8.75;;;7.90;69.10;;;;;;5080170;28;20040;-74
2022/04/29 06:58:21;;;;;;;19.77;9.25;;;7.80;68.80;;;;;;5073103;28;20052;-74
2022/04/29 07:00:49;;;;;;;16.40;9.80;;;7.80;68.40;;;;;;5086418;28;20446;-75
2022/04/29 07:03:18;;;;;;;20.60;9.65;;;7.80;67.90;;;;;;5089729;28;20408;-74
2022/04/29 07:05:46;;;;;;;19.13;10.32;;;7.80;67.50;;;;;;5079942;28;20052;-74
2022/04/29 07:08:15;;;;;;;17.38;10.07;;;7.80;67.40;;;;;;5074273;28;20398;-74
2022/04/29 07:11:02;;;;;;;19.00;10.65;;;7.70;67.40;;;;;;5066378;28;20068;-74
2022/04/29 07:13:44;;;;;;;20.23;10.13;;;7.70;67.60;;;;;;5065921;28;20043;-74
2022/04/29 07:16:13;;;;;;;18.02;9.15;;;7.60;67.80;;;;;;5048009;28;20049;-74
2022/04/29 07:19:04;;;;;;;16.77;9.07;;;7.60;67.90;;;;;;5066031;28;20056;-74
2022/04/29 07:21:32;;;;;;;21.30;9.98;;;7.70;67.80;;;;;;5036899;28;20371;-74
2022/04/29 07:24:02;;;;;;;17.00;7.90;;;7.70;67.50;;;;;;5033587;28;20053;-74
2022/04/29 07:26:37;;;;;;;17.23;7.07;;;7.70;67.20;;;;;;5050417;28;20041;-74
2022/04/29 07:29:07;;;;;;;12.50;7.60;;;7.70;66.50;;;;;;5033815;28;20438;-74
2022/04/29 07:31:40;;;;;;;13.65;6.82;;;7.80;65.90;;;;;;5052077;28;20040;-74
2022/04/29 07:43:08;;;;;;;12.93;6.90;;;8.10;63.90;;;;;;5040077;28;20052;-75
2022/04/29 07:45:38;;;;;;;13.45;7.22;;;8.20;63.40;;;;;;5071384;28;20049;-75
2022/04/29 07:48:38;;;;;;;12.73;7.50;;;8.20;63.00;;;;;;5051524;28;20498;-74
2022/04/29 07:51:06;;;;;;;16.27;8.32;;;8.30;62.40;;;;;;5051813;28;20048;-74
2022/04/29 07:53:35;;;;;;;16.23;7.72;;;8.40;62.10;;;;;;5035519;28;20486;-74
2022/04/29 07:56:02;;;;;;;13.13;6.60;;;8.50;61.90;;;;;;5035172;28;20048;-74
2022/04/29 07:58:34;;;;;;;13.23;7.00;;;8.70;61.60;;;;;;5036386;28;20036;-74
2022/04/29 08:01:06;;;;;;;10.65;6.63;;;8.80;60.80;;;;;;5051427;28;20393;-74
2022/04/29 08:03:37;;;;;;;22.60;7.18;;;9.00;60.10;;;;;;5048888;28;20531;-74
2022/04/29 08:06:07;;;;;;;39.35;7.80;;;9.10;59.50;;;;;;5036528;28;20036;-72
2022/04/29 08:08:37;;;;;;;12.18;6.68;;;9.30;58.90;;;;;;5053666;28;20036;-73
2022/04/29 08:11:07;;;;;;;11.00;6.57;;;9.30;58.80;;;;;;5059155;28;20049;-73
2022/04/29 08:13:48;;;;;;;10.82;6.53;;;9.50;58.30;;;;;;5085370;28;20047;-74
2022/04/29 08:17:06;;;;;;;14.13;6.93;;;9.60;57.90;;;;;;5028311;28;20069;-73
2022/04/29 08:19:45;;;;;;;14.00;6.97;;;9.70;57.60;;;;;;5012674;28;20076;-73
2022/04/29 08:22:22;;;;;;;14.00;7.30;;;9.70;57.50;;;;;;5010328;28;20542;-74
2022/04/29 08:24:52;;;;;;;25.35;7.10;;;9.80;57.10;;;;;;5011723;28;20053;-74
2022/04/29 08:27:20;;;;;;;18.27;7.20;;;9.70;56.40;;;;;;5027386;28;20064;-74
2022/04/29 08:29:56;;;;;;;13.35;6.80;;;9.70;56.70;;;;;;5005571;28;20054;-74
2022/04/29 08:32:25;;;;;;;14.65;6.30;;;9.80;56.70;;;;;;5005553;28;20046;-74
2022/04/29 08:34:54;;;;;;;15.80;6.68;;;9.80;56.60;;;;;;5022888;28;20068;-74
2022/04/29 08:37:21;;;;;;;14.45;6.20;;;9.90;56.10;;;;;;5012542;28;20118;-75
2022/04/29 08:39:49;;;;;;;13.35;6.45;;;10.00;55.90;;;;;;5012162;28;20069;-74
2022/04/29 08:42:18;;;;;;;16.30;6.82;;;10.10;55.70;;;;;;5016052;28;20045;-74
2022/04/29 08:44:49;;;;;;;16.15;7.05;;;10.20;55.50;;;;;;5015785;28;20049;-75
2022/04/29 08:47:39;;;;;;;9.38;6.47;;;10.30;55.30;;;;;;5032112;28;20333;-74
2022/04/29 08:50:16;;;;;;;12.38;6.80;;;10.40;55.10;;;;;;5020225;28;20415;-74
2022/04/29 08:52:44;;;;;;;11.18;6.55;;;10.50;54.00;;;;;;5020494;28;20049;-74
2022/04/29 09:00:47;;;;;;;12.38;6.60;;;10.60;54.00;;;;;;5094525;28;20055;-73
2022/04/29 09:03:20;;;;;;;12.45;6.00;;;10.80;53.60;;;;;;5094012;28;20412;-73
2022/04/29 09:05:49;;;;;;;13.15;6.15;;;11.00;53.10;;;;;;5094331;28;20048;-74
2022/04/29 09:08:20;;;;;;;11.68;6.10;;;11.10;52.20;;;;;;5077163;28;20406;-74
2022/04/29 09:10:52;;;;;;;13.07;6.15;;;11.10;52.20;;;;;;5062325;28;20053;-74
2022/04/29 09:13:29;;;;;;;14.52;6.65;;;11.20;52.30;;;;;;5053904;28;20048;-74
2022/04/29 09:16:00;;;;;;;13.85;6.00;;;11.30;51.90;;;;;;5053973;28;20037;-74
2022/04/29 09:18:43;;;;;;;12.98;5.75;;;11.40;52.00;;;;;;5036164;28;20494;-74
2022/04/29 09:21:11;;;;;;;11.07;6.53;;;11.50;51.60;;;;;;5036029;28;20053;-75
2022/04/29 09:23:59;;;;;;;11.02;5.97;;;11.60;51.40;;;;;;5057140;28;20045;-73
2022/04/29 09:26:47;;;;;;;11.43;6.45;;;11.80;51.00;;;;;;5070526;28;20052;-74
2022/04/29 09:29:42;;;;;;;12.05;6.55;;;11.90;50.40;;;;;;5067169;28;20041;-74
2022/04/29 09:32:11;;;;;;;13.52;6.70;;;12.00;49.10;;;;;;5045695;28;20036;-73
2022/04/29 09:35:07;;;;;;;15.77;6.60;;;12.00;49.40;;;;;;4972320;28;20617;-74
2022/04/29 09:39:26;;;;;;;11.35;6.00;;;12.20;50.10;;;;;;4974298;28;20051;-74
2022/04/29 09:40:38;;;;;;;11.32;6.18;;;12.30;50.00;;;;;;4978222;28;20046;-74
2022/04/29 09:43:05;;;;;;;13.15;6.18;;;12.40;49.10;;;;;;4958888;28;20047;-74
2022/04/29 09:45:33;;;;;;;11.88;5.63;;;12.50;49.00;;;;;;4985085;28;20511;-74
2022/04/29 09:48:01;;;;;;;9.48;5.45;;;12.60;48.40;;;;;;4967048;28;20053;-74
2022/04/29 09:50:46;;;;;;;10.52;5.85;;;12.60;48.50;;;;;;4979936;28;20074;-74
2022/04/29 09:53:23;;;;;;;15.55;6.03;;;12.60;48.20;;;;;;4972057;28;20381;-75
2022/04/29 09:56:12;;;;;;;11.63;6.18;;;12.60;48.30;;;;;;4972112;28;20054;-74
2022/04/29 09:58:40;;;;;;;10.73;5.80;;;12.70;48.10;;;;;;4955525;28;20043;-74
2022/04/29 10:01:09;;;;;;;15.80;5.93;;;12.50;48.10;;;;;;4955670;28;20057;-73
2022/04/29 10:03:38;;;;;;;15.10;6.80;;;12.50;48.30;;;;;;4957971;28;20054;-74
2022/04/29 10:06:10;;;;;;;13.40;6.47;;;12.50;48.60;;;;;;4955908;28;20680;-73
2022/04/29 10:08:39;;;;;;;11.77;6.93;;;12.50;48.50;;;;;;4971876;28;20068;-72
2022/04/29 10:11:07;;;;;;;10.52;6.32;;;12.40;47.90;;;;;;5014447;28;20055;-73
2022/04/29 10:13:35;;;;;;;14.45;6.63;;;12.50;47.90;;;;;;5072742;28;20055;-74
2022/04/29 10:16:13;;;;;;;11.15;6.55;;;12.70;47.80;;;;;;5054887;28;20049;-74
2022/04/29 10:22:13;;;;;;;10.55;5.80;;;13.00;47.10;;;;;;5092453;28;20055;-73
2022/04/29 10:24:42;;;;;;;10.02;5.82;;;13.30;46.70;;;;;;5090806;28;20048;-74
2022/04/29 10:27:12;;;;;;;10.48;6.15;;;13.50;46.60;;;;;;5092607;28;20043;-73
2022/04/29 10:29:40;;;;;;;10.98;5.78;;;13.60;46.60;;;;;;5091470;28;20039;-74
2022/04/29 10:32:11;;;;;;;12.88;5.55;;;13.70;46.10;;;;;;5091551;28;20040;-73
2022/04/29 10:34:39;;;;;;;10.75;6.00;;;13.70;45.90;;;;;;5092513;28;20485;-73
2022/04/29 10:37:11;;;;;;;14.20;5.70;;;13.70;44.80;;;;;;5091500;28;20044;-75
2022/04/29 10:39:41;;;;;;;8.55;5.93;;;13.60;45.00;;;;;;5090514;28;20047;-75
2022/04/29 10:42:09;;;;;;;14.77;5.63;;;13.60;45.00;;;;;;5072477;28;20048;-75
2022/04/29 10:45:05;;;;;;;9.32;5.10;;;13.80;45.20;;;;;;5070856;28;20049;-76
2022/04/29 10:47:41;;;;;;;9.02;5.00;;;14.00;44.60;;;;;;5069729;28;20047;-75
2022/04/29 10:50:36;;;;;;;9.20;5.65;;;14.20;44.80;;;;;;5089299;28;20060;-75
2022/04/29 10:53:23;;;;;;;9.85;5.35;;;14.40;44.80;;;;;;5091513;28;20040;-75
2022/04/29 10:56:31;;;;;;;9.65;5.13;;;14.60;44.50;;;;;;5091131;28;20412;-75
2022/04/29 10:59:04;;;;;;;10.05;4.60;;;14.80;43.40;;;;;;5092346;28;20417;-75
2022/04/29 11:01:33;;;;;;;8.50;5.18;;;14.80;43.70;;;;;;5091006;28;20040;-74
2022/04/29 11:04:06;;;;;;;12.13;4.63;;;14.90;43.70;;;;;;5092235;28;20046;-74
2022/04/29 11:06:40;;;;;;;11.20;4.60;;;15.10;44.00;;;;;;5074432;28;20063;-74
2022/04/29 11:09:44;;;;;;;12.77;4.80;;;15.20;43.50;;;;;;5090733;28;20044;-74
2022/04/29 11:12:32;;;;;;;12.23;5.13;;;15.40;43.40;;;;;;5091926;28;20393;-74
2022/04/29 11:15:43;;;;;;;10.85;5.10;;;15.40;42.90;;;;;;5013031;28;20095;-74
2022/04/29 11:18:26;;;;;;;12.13;5.80;;;15.30;42.70;;;;;;5013114;28;20054;-74
2022/04/29 11:20:56;;;;;;;9.20;4.93;;;15.30;42.50;;;;;;5029812;28;20057;-75
2022/04/29 11:26:18;;;;;;;8.90;5.07;;;15.20;44.00;;;;;;5013067;28;20053;-75
2022/04/29 11:28:54;;;;;;;11.70;5.18;;;15.30;43.70;;;;;;5013611;28;20450;-76
2022/04/29 11:31:37;;;;;;;12.05;5.70;;;15.50;43.00;;;;;;5013070;28;20076;-75
2022/04/29 11:34:10;;;;;;;11.07;5.70;;;15.50;42.80;;;;;;5017722;28;20041;-74
2022/04/29 11:36:39;;;;;;;9.23;4.82;;;15.60;43.40;;;;;;5028430;28;20053;-74
2022/04/29 11:39:18;;;;;;;8.35;4.72;;;15.80;43.30;;;;;;5028454;28;20084;-74
2022/04/29 11:41:57;;;;;;;13.02;5.53;;;16.10;42.50;;;;;;5012650;28;20411;-74
2022/04/29 11:44:40;;;;;;;9.27;5.50;;;16.30;41.90;;;;;;5030071;28;20057;-74
2022/04/29 11:47:09;;;;;;;9.13;5.20;;;16.50;41.50;;;;;;5016008;28;20382;-74
2022/04/29 11:49:42;;;;;;;;;;;16.50;41.50;;;;;;5060784;28;20492;-75
2022/04/29 11:52:27;;;;;;;11.80;5.40;;;16.70;41.00;;;;;;5091533;28;19931;-75
2022/04/29 11:55:06;;;;;;;14.75;5.57;;;16.80;41.40;;;;;;5091961;28;20051;-74
2022/04/29 11:57:44;;;;;;;9.73;5.05;;;17.00;41.40;;;;;;5091711;28;20040;-75
2022/04/29 12:00:25;;;;;;;9.02;4.90;;;17.30;39.90;;;;;;5091323;28;20059;-75
2022/04/29 12:02:55;;;;;;;8.30;5.18;;;16.90;38.90;;;;;;5091141;28;20055;-74
2022/04/29 12:05:24;;;;;;;11.20;5.22;;;16.70;39.50;;;;;;5091492;28;20051;-75
2022/04/29 12:07:53;;;;;;;13.05;5.38;;;16.50;40.00;;;;;;5091135;28;20052;-74
2022/04/29 12:10:33;;;;;;;16.70;5.13;;;16.70;40.10;;;;;;5087255;28;20500;-74
2022/04/29 12:13:05;;;;;;;10.50;5.22;;;17.00;40.40;;;;;;5074125;28;20048;-75
2022/04/29 12:15:42;;;;;;;11.90;5.15;;;17.40;39.90;;;;;;5024990;28;20508;-74
2022/04/29 12:18:15;;;;;;;11.15;5.13;;;17.80;38.40;;;;;;5057020;28;20079;-75
2022/04/29 12:21:00;;;;;;;11.52;5.47;;;17.90;38.00;;;;;;5057120;28;20048;-75
2022/04/29 12:23:32;;;;;;;10.00;4.90;;;18.10;37.60;;;;;;5056358;28;20052;-75
2022/04/29 12:26:01;;;;;;;9.55;5.20;;;18.30;38.30;;;;;;5056929;28;20069;-75
2022/04/29 12:28:32;;;;;;;11.27;5.07;;;18.60;37.20;;;;;;5073992;28;20068;-75
2022/04/29 12:37:08;;;;;;;6.97;4.43;;;18.50;36.70;;;;;;5025668;28;20068;-74
2022/04/29 12:40:04;;;;;;;7.45;4.72;;;18.80;36.90;;;;;;5056512;28;20045;-75
2022/04/29 12:42:32;;;;;;;9.60;4.68;;;19.00;36.60;;;;;;5007364;28;20052;-75
2022/04/29 12:45:14;;;;;;;9.98;4.40;;;19.20;35.90;;;;;;5036992;28;20052;-75
2022/04/29 12:48:07;;;;;;;11.45;5.28;;;19.50;35.70;;;;;;5038908;28;20048;-75
2022/04/29 12:50:44;;;;;;;8.95;4.28;;;19.80;35.30;;;;;;5042186;28;20045;-75
2022/04/29 12:53:19;;;;;;;11.80;4.70;;;20.00;34.50;;;;;;5042880;28;20080;-75
2022/04/29 12:55:51;;;;;;;13.38;4.57;;;20.30;34.90;;;;;;5072163;28;20044;-74
2022/04/29 12:58:29;;;;;;;9.13;4.65;;;20.80;34.60;;;;;;5055793;28;20056;-75
2022/04/29 13:01:06;;;;;;;9.32;4.95;;;21.00;33.60;;;;;;5073724;28;20418;-74
2022/04/29 13:03:58;;;;;;;8.35;4.05;;;21.30;33.40;;;;;;5045263;28;20505;-74
2022/04/29 13:06:46;;;;;;;9.67;4.93;;;21.50;32.30;;;;;;5021730;28;20061;-73
2022/04/29 13:09:14;;;;;;;10.00;4.18;;;21.80;32.40;;;;;;5067052;28;20321;-74
2022/04/29 13:11:45;;;;;;;9.75;4.88;;;21.80;30.90;;;;;;5035855;28;20064;-74
2022/04/29 13:14:29;;;;;;;14.07;4.10;;;21.90;31.90;;;;;;5022030;28;20033;-74
2022/04/29 13:16:57;;;;;;;10.30;4.50;;;22.30;31.70;;;;;;5035749;28;20597;-75
2022/04/29 13:19:25;;;;;;;8.82;4.05;;;22.60;31.20;;;;;;5052919;28;20044;-75
2022/04/29 13:21:54;;;;;;;9.95;4.35;;;22.90;30.70;;;;;;5056547;28;20418;-75
2022/04/29 13:24:22;;;;;;;10.68;4.53;;;23.20;30.10;;;;;;5053676;28;20067;-75
2022/04/29 13:27:19;;;;;;;10.57;4.38;;;23.50;29.70;;;;;;5048655;28;20037;-74
2022/04/29 13:30:08;;;;;;;7.38;3.90;;;23.90;29.70;;;;;;5060330;28;20045;-75
2022/04/29 13:32:36;;;;;;;7.47;4.28;;;23.90;28.80;;;;;;5027276;28;20041;-74
2022/04/29 13:35:06;;;;;;;7.13;3.75;;;24.00;28.90;;;;;;5035691;28;20075;-75
2022/04/29 13:37:43;;;;;;;6.35;3.72;;;24.20;28.50;;;;;;5060104;28;20504;-75
2022/04/29 13:40:11;;;;;;;8.20;4.10;;;24.30;28.00;;;;;;5069733;28;20509;-76
2022/04/29 13:42:39;;;;;;;6.10;4.25;;;24.20;27.20;;;;;;5059355;28;20163;-74
2022/04/29 13:45:12;;;;;;;7.95;4.32;;;24.20;27.30;;;;;;5055025;28;20055;-75
2022/04/29 13:47:41;;;;;;;10.18;4.13;;;24.30;27.30;;;;;;5044904;28;20410;-75
2022/04/29 13:50:11;;;;;;;8.65;3.97;;;24.30;26.60;;;;;;5058475;28;20048;-75
2022/04/29 13:55:25;;;;;;;8.85;4.47;;;24.50;26.40;;;;;;5052020;28;20135;-74
2022/04/29 13:57:53;;;;;;;8.52;4.13;;;24.60;26.40;;;;;;5035608;28;20049;-74
2022/04/29 14:00:21;;;;;;;7.20;4.22;;;24.80;26.20;;;;;;5053368;28;20414;-74